Nissyomaru — JD2650 — position and weather

sailwx.info

Track history (hours):
 
Tides and Currents Weather Stations Pressure Air Temp Water Temp Dewpoint Dewpoint Depression Visibility Wind Speed Wind Dir Waves Ship Positions

Nissyomaru

Last reported at 2014-Sep-19 11:30 UTC. Time now 2014-Sep-21 16:06 UTC.
Position N 35°09' E 139°46'.

Length 75 m; draft 4 m.

Type: Cargo ship. MMSI: 431000572.

Date/timePositionNaut miles runAvg speedWind from/ knotsBaromVisibWave heightAir tempDewpointWater temp
2014-Sep-19 11:30N 35°09' E 139°46'1212.4
2014-Sep-19 10:33N 35°21' E 139°43'9 1.8
2014-Sep-19 05:31N 35°22' E 139°54'0 0.0
2014-Sep-19 04:28N 35°22' E 139°54'0 0.0
2014-Sep-19 03:31N 35°22' E 139°54'0 0.0
2014-Sep-19 02:31N 35°22' E 139°54'0 0.0
2014-Sep-19 01:31N 35°22' E 139°54'0 0.0
2014-Sep-19 00:25N 35°22' E 139°54'0 0.0
2014-Sep-18 23:31N 35°22' E 139°54'0 0.0
2014-Sep-18 22:28N 35°22' E 139°54'2 2.7
2014-Sep-18 21:33N 35°23' E 139°51'2 1.7
2014-Sep-18 20:33N 35°24' E 139°50'0 0.0
2014-Sep-18 19:33N 35°24' E 139°50'0 0.0
2014-Sep-18 18:33N 35°24' E 139°50'0 0.0
2014-Sep-18 17:33N 35°24' E 139°50'0 0.0
2014-Sep-18 16:30N 35°24' E 139°50'0 0.0
2014-Sep-18 15:30N 35°24' E 139°50'0 0.0
2014-Sep-18 14:30N 35°24' E 139°50'0 0.0
2014-Sep-18 13:33N 35°24' E 139°50'0 0.0
2014-Sep-18 12:33N 35°24' E 139°50'0 0.0
2014-Sep-18 11:30N 35°24' E 139°50'0 0.0
2014-Sep-18 10:33N 35°24' E 139°50'0 0.0
2014-Sep-18 09:33N 35°24' E 139°50'7 7.5
2014-Sep-18 08:33N 35°18' E 139°44'253 5.5
2014-Sep-16 10:27N 34°03' E 134°50'1213.2
2014-Sep-16 09:34N 34°13' E 134°57'1312.8
2014-Sep-16 08:33N 34°25' E 135°05'1312.9
2014-Sep-16 07:33N 34°33' E 135°16'1110.6
2014-Sep-16 06:33N 34°40' E 135°26'0 0.0
2014-Sep-15 22:21N 34°40' E 135°27'0 0.0
2014-Sep-15 21:21N 34°40' E 135°27'0 0.0
2014-Sep-15 20:21N 34°40' E 135°27'0 0.0
2014-Sep-15 19:30N 34°40' E 135°27'0 0.0
2014-Sep-15 18:30N 34°40' E 135°27'0 0.0
2014-Sep-15 17:24N 34°40' E 135°27'0 0.0
2014-Sep-15 16:30N 34°40' E 135°27'0 0.0
2014-Sep-15 15:30N 34°40' E 135°27'0 0.0
2014-Sep-15 14:30N 34°40' E 135°27'0 0.0
2014-Sep-15 13:30N 34°40' E 135°27'0 0.0
2014-Sep-15 12:18N 34°40' E 135°27'0 0.0
2014-Sep-15 11:30N 34°40' E 135°27'0 0.0
2014-Sep-15 10:24N 34°40' E 135°27'0 0.0
2014-Sep-15 01:18N 34°40' E 135°27'0 0.0
2014-Sep-15 00:30N 34°40' E 135°27'3 3.1
2014-Sep-14 23:33N 34°38' E 135°24'2 2.2
2014-Sep-14 22:32N 34°37' E 135°22'6 6.0
2014-Sep-14 21:33N 34°33' E 135°16'1110.7
2014-Sep-14 20:33N 34°25' E 135°08'13 9.6
2014-Sep-14 19:14N 34°15' E 134°59'811.1
2014-Sep-14 18:33N 34°07' E 135°00'23210.3
2014-Sep-13 20:04N 34°43' E 139°39'6 9.7
2014-Sep-13 19:25N 34°46' E 139°45'1111.1
2014-Sep-13 18:27N 34°51' E 139°56'910.4
2014-Sep-13 17:32N 34°57' E 140°06'2611.2
2014-Sep-13 15:12N 35°13' E 140°31'3212.0
2014-Sep-13 12:34N 35°38' E 140°54'1211.6
2014-Sep-13 11:34N 35°49' E 140°59'1212.1
2014-Sep-13 10:34N 36°01' E 141°02'1412.8
2014-Sep-13 09:27N 36°15' E 141°05'  
Track history (hours):
 
Tides and Currents Weather Stations Pressure Air Temp Water Temp Dewpoint Dewpoint Depression Visibility Wind Speed Wind Dir Waves Ship Positions

Nissyomaru

Last reported at 2014-Sep-19 11:30 UTC. Time now 2014-Sep-21 16:06 UTC.
Position N 35°09' E 139°46'.

Length 75 m; draft 4 m.

Type: Cargo ship. MMSI: 431000572.

Date/timePositionNaut miles runAvg speedWind from/ knotsBaromVisibWave heightAir tempDewpointWater temp
2014-Sep-19 11:30N 35°09' E 139°46'1212.4
2014-Sep-19 10:33N 35°21' E 139°43'9 1.8
2014-Sep-19 05:31N 35°22' E 139°54'0 0.0
2014-Sep-19 04:28N 35°22' E 139°54'0 0.0
2014-Sep-19 03:31N 35°22' E 139°54'0 0.0
2014-Sep-19 02:31N 35°22' E 139°54'0 0.0
2014-Sep-19 01:31N 35°22' E 139°54'0 0.0
2014-Sep-19 00:25N 35°22' E 139°54'0 0.0
2014-Sep-18 23:31N 35°22' E 139°54'0 0.0
2014-Sep-18 22:28N 35°22' E 139°54'2 2.7
2014-Sep-18 21:33N 35°23' E 139°51'2 1.7
2014-Sep-18 20:33N 35°24' E 139°50'0 0.0
2014-Sep-18 19:33N 35°24' E 139°50'0 0.0
2014-Sep-18 18:33N 35°24' E 139°50'0 0.0
2014-Sep-18 17:33N 35°24' E 139°50'0 0.0
2014-Sep-18 16:30N 35°24' E 139°50'0 0.0
2014-Sep-18 15:30N 35°24' E 139°50'0 0.0
2014-Sep-18 14:30N 35°24' E 139°50'0 0.0
2014-Sep-18 13:33N 35°24' E 139°50'0 0.0
2014-Sep-18 12:33N 35°24' E 139°50'0 0.0
2014-Sep-18 11:30N 35°24' E 139°50'0 0.0
2014-Sep-18 10:33N 35°24' E 139°50'0 0.0
2014-Sep-18 09:33N 35°24' E 139°50'7 7.5
2014-Sep-18 08:33N 35°18' E 139°44'253 5.5
2014-Sep-16 10:27N 34°03' E 134°50'1213.2
2014-Sep-16 09:34N 34°13' E 134°57'1312.8
2014-Sep-16 08:33N 34°25' E 135°05'1312.9
2014-Sep-16 07:33N 34°33' E 135°16'1110.6
2014-Sep-16 06:33N 34°40' E 135°26'0 0.0
2014-Sep-15 22:21N 34°40' E 135°27'0 0.0
2014-Sep-15 21:21N 34°40' E 135°27'0 0.0
2014-Sep-15 20:21N 34°40' E 135°27'0 0.0
2014-Sep-15 19:30N 34°40' E 135°27'0 0.0
2014-Sep-15 18:30N 34°40' E 135°27'0 0.0
2014-Sep-15 17:24N 34°40' E 135°27'0 0.0
2014-Sep-15 16:30N 34°40' E 135°27'0 0.0
2014-Sep-15 15:30N 34°40' E 135°27'0 0.0
2014-Sep-15 14:30N 34°40' E 135°27'0 0.0
2014-Sep-15 13:30N 34°40' E 135°27'0 0.0
2014-Sep-15 12:18N 34°40' E 135°27'0 0.0
2014-Sep-15 11:30N 34°40' E 135°27'0 0.0
2014-Sep-15 10:24N 34°40' E 135°27'0 0.0
2014-Sep-15 01:18N 34°40' E 135°27'0 0.0
2014-Sep-15 00:30N 34°40' E 135°27'3 3.1
2014-Sep-14 23:33N 34°38' E 135°24'2 2.2
2014-Sep-14 22:32N 34°37' E 135°22'6 6.0
2014-Sep-14 21:33N 34°33' E 135°16'1110.7
2014-Sep-14 20:33N 34°25' E 135°08'13 9.6
2014-Sep-14 19:14N 34°15' E 134°59'811.1
2014-Sep-14 18:33N 34°07' E 135°00'23210.3
2014-Sep-13 20:04N 34°43' E 139°39'6 9.7
2014-Sep-13 19:25N 34°46' E 139°45'1111.1
2014-Sep-13 18:27N 34°51' E 139°56'910.4
2014-Sep-13 17:32N 34°57' E 140°06'2611.2
2014-Sep-13 15:12N 35°13' E 140°31'3212.0
2014-Sep-13 12:34N 35°38' E 140°54'1211.6
2014-Sep-13 11:34N 35°49' E 140°59'1212.1
2014-Sep-13 10:34N 36°01' E 141°02'1412.8
2014-Sep-13 09:27N 36°15' E 141°05'  

Dump ship's entire track history